Kearney Regional Airport

Airport
ICAO code: 
KEAR
Summary
ICAO Region: 
NAM
Territory: 
Location: 
Kearney, Nebraska,
Elevation: 
2131 ft
Coordinates: 
Aerial View: 
40° 43' 31.576" N, 99° 0' 31.27" W
Metar
Observation
KEAR 021356Z AUTO 24006KT 10SM CLR 07/00 A3000 RMK AO2 SLP159 T00670000
Station
Kearney, Kearney Municipal Airport
Date/Time
2021-12-02 13:56:00
Wind direction
240°
Wind speed
06 kts
Lowest cloud amount
n/a
Temperature
6.7°C
Dew point
0°C
Humidity
62%
Weather condition
n/a

Description

Kearney Regional Airport is a public use airport located 7 km northeast of the central business district of Kearney, a city in Buffalo County, Nebraska.

Climatology

Humid continental climate (Köppen climate classification Dfa) - characterized by four seasons: cold, windy, snowy winters, mild springs, hot, humid summers, and crisp and relatively short autumns. Precipitation reaches its lowest in January and February and peaks in summer and latter half of spring.

Runways

Designator Length Width Surface Rops
13/31 1371 23 CON Yes/Yes
18/36 2162 46 ASP Yes/Yes
Airport map: 
Aerial View: 

SKYbrary Partners:

Safety knowledge contributed by: